createdAt,value
2022-10-29T00:00:11.972Z,13.29
2022-10-29T00:04:30.527Z,13.34
2022-10-29T00:08:47.872Z,13.37
2022-10-29T00:13:05.028Z,13.36
2022-10-29T00:17:05.041Z,13.35
2022-10-29T00:21:06.531Z,13.32
2022-10-29T00:25:23.034Z,13.30
2022-10-29T00:29:35.982Z,13.29
2022-10-29T00:33:55.082Z,13.27
2022-10-29T00:37:54.414Z,13.25
2022-10-29T00:41:54.093Z,13.24
2022-10-29T00:46:17.989Z,13.25
2022-10-29T00:50:17.922Z,13.27
2022-10-29T00:54:35.039Z,13.25
2022-10-29T00:58:52.507Z,13.24
2022-10-29T01:02:51.897Z,13.24
2022-10-29T01:07:05.413Z,13.24
2022-10-29T01:11:51.781Z,13.23
2022-10-29T01:16:43.972Z,13.23
2022-10-29T01:21:01.592Z,13.25
2022-10-29T01:25:37.118Z,13.34
2022-10-29T01:29:48.163Z,13.44
2022-10-29T01:33:55.625Z,13.49
2022-10-29T01:38:14.373Z,13.48
2022-10-29T01:42:16.773Z,13.44
2022-10-29T01:46:26.732Z,13.42
2022-10-29T01:50:26.695Z,13.42
2022-10-29T01:54:45.465Z,13.42
2022-10-29T02:04:09.741Z,13.41
2022-10-29T02:07:35.290Z,13.41
2022-10-29T02:11:43.914Z,13.43
2022-10-29T02:16:05.841Z,13.44
2022-10-29T02:20:11.782Z,13.47
2022-10-29T02:23:42.352Z,13.48
2022-10-29T02:27:59.637Z,13.51
2022-10-29T02:32:16.971Z,13.54
2022-10-29T02:36:16.123Z,13.57
2022-10-29T02:40:33.233Z,13.59
2022-10-29T02:44:32.537Z,13.61
2022-10-29T02:48:31.571Z,13.63
2022-10-29T02:52:30.721Z,13.65
2022-10-29T02:56:29.875Z,13.67
2022-10-29T03:00:28.961Z,13.69
2022-10-29T03:04:27.999Z,13.74
2022-10-29T03:08:27.184Z,13.76
2022-10-29T03:12:26.032Z,13.79
2022-10-29T03:16:38.914Z,13.84
2022-10-29T03:20:38.695Z,13.89
2022-10-29T03:24:37.414Z,13.92
2022-10-29T03:32:50.019Z,13.96
2022-10-29T03:36:49.461Z,13.96
2022-10-29T03:40:48.465Z,13.96
2022-10-29T03:44:47.592Z,13.98
2022-10-29T03:48:50.274Z,13.97
2022-10-29T03:52:49.147Z,13.96
2022-10-29T03:57:06.084Z,13.96
2022-10-29T04:01:07.630Z,13.98
2022-10-29T04:05:24.240Z,14.01
2022-10-29T04:09:23.411Z,14.03
2022-10-29T04:13:22.419Z,14.05
2022-10-29T04:17:21.541Z,14.07
2022-10-29T04:27:14.922Z,14.06
2022-10-29T04:29:59.022Z,14.05
2022-10-29T04:34:16.315Z,14.03
2022-10-29T04:38:15.612Z,14.02
2022-10-29T04:42:14.973Z,14.02
2022-10-29T04:46:28.358Z,14.08
2022-10-29T04:50:28.931Z,14.17
2022-10-29T04:54:27.793Z,14.24
2022-10-29T04:58:26.751Z,14.29
2022-10-29T05:02:39.860Z,14.33
2022-10-29T05:06:56.754Z,14.41
2022-10-29T05:10:56.075Z,14.50
2022-10-29T05:14:55.253Z,14.51
2022-10-29T05:19:08.240Z,14.51
2022-10-29T05:23:10.193Z,14.53
2022-10-29T05:27:09.032Z,14.50
2022-10-29T05:31:25.953Z,14.50
2022-10-29T05:35:25.872Z,14.49
2022-10-29T05:39:42.534Z,14.45
2022-10-29T05:43:41.999Z,14.45
2022-10-29T05:47:42.311Z,14.45
2022-10-29T05:51:41.643Z,14.49
2022-10-29T05:55:41.852Z,14.51
2022-10-29T05:59:54.651Z,14.50
2022-10-29T06:07:57.698Z,14.58
2022-10-29T06:11:57.101Z,14.58
2022-10-29T06:15:59.341Z,14.61
2022-10-29T06:19:57.876Z,14.65
2022-10-29T06:24:10.893Z,14.65
2022-10-29T06:28:33.491Z,14.62
2022-10-29T06:32:33.933Z,14.61
2022-10-29T06:36:52.100Z,14.61
2022-10-29T06:40:56.048Z,14.63
2022-10-29T06:44:55.285Z,14.61
2022-10-29T06:48:54.793Z,14.63
2022-10-29T06:53:16.115Z,14.65
2022-10-29T06:57:15.372Z,14.64
2022-10-29T07:01:14.434Z,14.64
2022-10-29T07:05:28.033Z,14.64
2022-10-29T07:09:45.754Z,14.65
2022-10-29T07:13:22.589Z,14.65
2022-10-29T07:17:21.835Z,14.64
2022-10-29T07:21:20.975Z,14.61
2022-10-29T07:25:39.293Z,14.59
2022-10-29T07:28:57.878Z,14.59
2022-10-29T07:33:14.973Z,14.60
2022-10-29T07:37:14.498Z,14.63
2022-10-29T07:41:27.592Z,14.65
2022-10-29T07:45:49.359Z,14.67
2022-10-29T07:49:04.561Z,14.68
2022-10-29T07:53:06.186Z,14.72
2022-10-29T07:57:05.331Z,14.74
2022-10-29T08:01:05.152Z,14.77
2022-10-29T08:05:05.649Z,14.82
2022-10-29T08:09:07.069Z,14.86
2022-10-29T08:13:07.089Z,14.88
2022-10-29T08:17:06.119Z,14.83
2022-10-29T08:21:19.059Z,14.79
2022-10-29T08:25:19.079Z,14.73
2022-10-29T08:29:18.240Z,14.69
2022-10-29T08:33:18.303Z,14.68
2022-10-29T08:37:17.161Z,14.67
2022-10-29T08:45:56.956Z,14.68
2022-10-29T08:50:20.857Z,14.70
2022-10-29T08:54:36.797Z,14.73
2022-10-29T08:59:15.359Z,14.72
2022-10-29T09:03:14.879Z,14.69
2022-10-29T09:07:47.073Z,14.67
2022-10-29T09:11:51.702Z,14.67
2022-10-29T09:16:09.495Z,14.62
2022-10-29T09:20:45.707Z,14.57
2022-10-29T09:25:06.855Z,14.55
2022-10-29T09:29:30.796Z,14.52
2022-10-29T09:38:09.076Z,14.53
2022-10-29T09:42:34.379Z,14.61
2022-10-29T09:47:05.722Z,14.67
2022-10-29T09:51:54.732Z,14.69
2022-10-29T09:55:54.999Z,14.71
2022-10-29T09:59:58.295Z,14.70
2022-10-29T10:04:06.533Z,14.66
2022-10-29T10:08:19.592Z,14.63
2022-10-29T10:12:21.093Z,14.57
2022-10-29T10:16:33.931Z,14.54
2022-10-29T10:20:35.506Z,14.56
2022-10-29T10:24:37.261Z,14.61
2022-10-29T10:28:36.546Z,14.69
2022-10-29T10:32:49.465Z,14.78
2022-10-29T10:37:07.940Z,14.83
2022-10-29T10:45:36.520Z,14.87
2022-10-29T10:49:39.498Z,14.94
2022-10-29T10:53:57.152Z,14.97
2022-10-29T10:58:18.881Z,15.00
2022-10-29T11:03:10.589Z,15.02
2022-10-29T11:07:14.745Z,14.97
2022-10-29T11:11:59.411Z,14.91
2022-10-29T11:16:12.954Z,14.84
2022-10-29T11:20:21.060Z,14.82
2022-10-29T11:25:06.918Z,14.80
2022-10-29T11:29:51.666Z,14.79
2022-10-29T11:33:43.821Z,14.80
2022-10-29T11:38:03.552Z,14.82
2022-10-29T11:42:03.295Z,14.80
2022-10-29T11:46:16.466Z,14.79
2022-10-29T11:50:45.303Z,14.75
2022-10-29T11:55:08.827Z,14.72
2022-10-29T11:59:36.737Z,14.68
2022-10-29T12:04:01.688Z,14.68
2022-10-29T12:08:43.187Z,14.67
2022-10-29T12:13:02.175Z,14.66
2022-10-29T12:17:43.332Z,14.62
2022-10-29T12:21:05.919Z,14.58
2022-10-29T12:25:20.060Z,14.56
2022-10-29T12:29:36.343Z,14.58
2022-10-29T12:34:19.474Z,14.60
2022-10-29T12:38:36.345Z,14.61
2022-10-29T12:42:36.206Z,14.59
2022-10-29T12:46:38.515Z,14.57
2022-10-29T12:51:06.539Z,14.58
2022-10-29T12:55:20.965Z,14.59
2022-10-29T12:59:40.254Z,14.63
2022-10-29T13:04:23.928Z,14.63
2022-10-29T13:07:44.935Z,14.63
2022-10-29T13:11:00.855Z,14.63
2022-10-29T13:15:15.657Z,14.60
2022-10-29T13:19:44.588Z,14.57
2022-10-29T13:24:05.653Z,14.53
2022-10-29T13:27:36.134Z,14.50
2022-10-29T13:31:35.161Z,14.46
2022-10-29T13:35:41.365Z,14.43
2022-10-29T13:39:41.510Z,14.40
2022-10-29T13:43:44.006Z,14.36
2022-10-29T13:47:52.006Z,14.34
2022-10-29T13:52:02.966Z,14.29
2022-10-29T13:56:02.573Z,14.23
2022-10-29T14:00:21.749Z,14.19
2022-10-29T14:04:11.834Z,14.17
2022-10-29T14:08:46.605Z,14.12
2022-10-29T14:13:34.322Z,14.03
2022-10-29T14:17:33.111Z,13.96
2022-10-29T14:21:38.451Z,13.92
2022-10-29T14:25:38.002Z,13.92
2022-10-29T14:29:36.775Z,13.89
2022-10-29T14:33:58.874Z,13.85
2022-10-29T14:37:57.855Z,13.79
2022-10-29T14:41:57.615Z,13.72
2022-10-29T14:46:24.278Z,13.65
2022-10-29T14:50:46.679Z,13.58
2022-10-29T14:54:50.096Z,13.52
2022-10-29T14:58:50.989Z,13.46
2022-10-29T15:03:20.581Z,13.41
2022-10-29T15:06:46.032Z,13.37
2022-10-29T15:11:00.534Z,13.33
2022-10-29T15:14:49.794Z,13.32
2022-10-29T15:18:51.282Z,13.32
2022-10-29T15:23:04.974Z,13.30
2022-10-29T15:27:06.681Z,13.26
2022-10-29T15:31:33.301Z,13.21
2022-10-29T15:34:53.281Z,13.20
2022-10-29T15:38:52.787Z,13.17
2022-10-29T15:42:53.555Z,13.14
2022-10-29T15:47:26.313Z,13.13
2022-10-29T15:52:03.550Z,13.12
2022-10-29T15:55:26.911Z,13.10
2022-10-29T15:59:44.576Z,13.08
2022-10-29T16:03:44.573Z,13.06
2022-10-29T16:08:03.930Z,13.03
2022-10-29T16:12:03.032Z,13.01
2022-10-29T16:16:01.813Z,12.98
2022-10-29T16:20:01.303Z,12.95
2022-10-29T16:24:18.608Z,12.92
2022-10-29T16:28:17.775Z,12.89
2022-10-29T16:32:19.456Z,12.86
2022-10-29T16:36:32.553Z,12.84
2022-10-29T16:40:31.709Z,12.82
2022-10-29T16:44:48.773Z,12.80
2022-10-29T16:48:48.188Z,12.79
2022-10-29T16:52:48.462Z,12.77
2022-10-29T16:57:20.120Z,12.74
2022-10-29T17:00:39.326Z,12.73
2022-10-29T17:04:38.919Z,12.73
2022-10-29T17:08:38.814Z,12.72
2022-10-29T17:12:38.524Z,12.71
2022-10-29T17:16:51.387Z,12.71
2022-10-29T17:20:58.809Z,12.69
2022-10-29T17:29:25.143Z,12.69
2022-10-29T17:33:24.052Z,12.67
2022-10-29T17:37:23.339Z,12.67
2022-10-29T17:41:36.498Z,12.66
2022-10-29T17:46:07.772Z,12.66
2022-10-29T17:49:27.061Z,12.67
2022-10-29T17:53:43.672Z,12.67
2022-10-29T17:57:43.574Z,12.68
2022-10-29T18:01:45.263Z,12.68
2022-10-29T18:06:02.433Z,12.67
2022-10-29T18:10:16.110Z,12.67
2022-10-29T18:14:32.924Z,12.68
2022-10-29T18:19:01.200Z,12.69
2022-10-29T18:23:19.316Z,12.69
2022-10-29T18:32:07.340Z,12.68
2022-10-29T18:36:20.548Z,12.65
2022-10-29T18:40:19.636Z,12.64
2022-10-29T18:44:18.984Z,12.65
2022-10-29T18:48:41.075Z,12.65
2022-10-29T18:52:54.103Z,12.67
2022-10-29T18:57:07.561Z,12.68
2022-10-29T19:01:23.636Z,12.68
2022-10-29T19:05:23.183Z,12.67
2022-10-29T19:09:22.466Z,12.68
2022-10-29T19:17:34.951Z,12.69
2022-10-29T19:21:38.374Z,12.69
2022-10-29T19:25:41.568Z,12.69
2022-10-29T19:30:16.123Z,12.68
2022-10-29T19:33:32.521Z,12.68
2022-10-29T19:37:46.995Z,12.68
2022-10-29T19:42:04.397Z,12.69
2022-10-29T19:46:08.340Z,12.67
2022-10-29T19:50:21.275Z,12.66
2022-10-29T19:54:34.390Z,12.64
2022-10-29T19:58:51.667Z,12.64
2022-10-29T20:02:54.342Z,12.64
2022-10-29T20:07:12.152Z,12.63
2022-10-29T20:11:44.554Z,12.62
2022-10-29T20:15:03.194Z,12.61
2022-10-29T20:19:05.012Z,12.60
2022-10-29T20:23:04.843Z,12.60
2022-10-29T20:27:04.276Z,12.59
2022-10-29T20:31:23.867Z,12.57
2022-10-29T20:35:23.929Z,12.57
2022-10-29T20:39:40.837Z,12.58
2022-10-29T20:43:40.288Z,12.57
2022-10-29T20:47:39.482Z,12.58
2022-10-29T20:51:55.984Z,12.58
2022-10-29T20:55:55.765Z,12.57
2022-10-29T20:59:55.069Z,12.56
2022-10-29T21:04:11.935Z,12.55
2022-10-29T21:08:30.087Z,12.54
2022-10-29T21:12:43.405Z,12.55
2022-10-29T21:16:42.865Z,12.54
2022-10-29T21:20:42.130Z,12.54
2022-10-29T21:24:59.836Z,12.53
2022-10-29T21:28:18.571Z,12.53
2022-10-29T21:32:51.591Z,12.52
2022-10-29T21:36:14.337Z,12.52
2022-10-29T21:40:14.056Z,12.51
2022-10-29T21:44:30.928Z,12.51
2022-10-29T21:48:44.274Z,12.50
2022-10-29T21:52:43.689Z,12.49
2022-10-29T21:56:56.686Z,12.49
2022-10-29T22:01:08.008Z,12.48
2022-10-29T22:05:21.420Z,12.48
2022-10-29T22:09:38.094Z,12.47
2022-10-29T22:13:37.515Z,12.46
2022-10-29T22:17:54.113Z,12.45
2022-10-29T22:22:11.613Z,12.43
2022-10-29T22:26:31.645Z,12.42
2022-10-29T22:30:30.640Z,12.41
2022-10-29T22:34:29.929Z,12.39
2022-10-29T22:38:29.231Z,12.38
2022-10-29T22:42:28.280Z,12.37
2022-10-29T22:46:45.176Z,12.35
2022-10-29T22:51:19.149Z,12.34
2022-10-29T22:55:17.898Z,12.34
2022-10-29T23:08:01.259Z,12.32
2022-10-29T23:12:15.194Z,12.32
2022-10-29T23:16:30.495Z,12.33
2022-10-29T23:20:30.315Z,12.32
2022-10-29T23:24:47.395Z,12.31
2022-10-29T23:28:48.067Z,12.30
2022-10-29T23:33:01.054Z,12.28
2022-10-29T23:37:17.506Z,12.26
2022-10-29T23:41:16.800Z,12.25
2022-10-29T23:45:17.266Z,12.23
2022-10-29T23:49:16.736Z,12.21
2022-10-29T23:53:15.930Z,12.20
2022-10-29T23:57:32.951Z,12.19
